Saint Michel 2 — FAB6608 — position and weather

sailwx.info

Track history (hours):
 
Tides and Currents Weather Stations Pressure Air Temp Water Temp Dewpoint Dewpoint Depression Visibility Wind Speed Wind Dir Waves Ship Positions

Saint Michel 2

Last reported at 2018-May-03 06:40 UTC. Time now 2018-Jun-25 15:53 UTC.
Position N 47°12' W 001°46'.
Warning: this ship's position is 53 days out of date.

Length 14 m.

Type: Sailing vessel. MMSI: 227224350.

Date/timePositionNaut miles runAvg speedWind from/ knotsBaromVisibWave heightAir tempDewpointWater temp
2018-May-03 06:40N 47°12' W 001°46'1 7.0
2018-May-03 06:30N 47°12' W 001°44'3 6.2
2018-May-03 06:00N 47°12' W 001°40'3 5.6
2018-May-03 05:28N 47°12' W 001°35'  
2018-Apr-26 13:07N 47°12' W 001°35'1 6.2
2018-Apr-26 12:59N 47°12' W 001°36'3 6.2
2018-Apr-26 12:30N 47°12' W 001°40'3 5.7
2018-Apr-26 11:58N 47°12' W 001°45'4 5.7
2018-Apr-26 11:18N 47°14' W 001°50'  
Track history (hours):
 
Tides and Currents Weather Stations Pressure Air Temp Water Temp Dewpoint Dewpoint Depression Visibility Wind Speed Wind Dir Waves Ship Positions

Saint Michel 2

Last reported at 2018-May-03 06:40 UTC. Time now 2018-Jun-25 15:53 UTC.
Position N 47°12' W 001°46'.
Warning: this ship's position is 53 days out of date.

Length 14 m.

Type: Sailing vessel. MMSI: 227224350.

Date/timePositionNaut miles runAvg speedWind from/ knotsBaromVisibWave heightAir tempDewpointWater temp
2018-May-03 06:40N 47°12' W 001°46'1 7.0
2018-May-03 06:30N 47°12' W 001°44'3 6.2
2018-May-03 06:00N 47°12' W 001°40'3 5.6
2018-May-03 05:28N 47°12' W 001°35'  
2018-Apr-26 13:07N 47°12' W 001°35'1 6.2
2018-Apr-26 12:59N 47°12' W 001°36'3 6.2
2018-Apr-26 12:30N 47°12' W 001°40'3 5.7
2018-Apr-26 11:58N 47°12' W 001°45'4 5.7
2018-Apr-26 11:18N 47°14' W 001°50'  

Dump ship's entire track history